Ryoan Maru No.27 — JD3700 — position and weather

sailwx.info

Track history (hours):
 
Tides and Currents Weather Stations Pressure Air Temp Water Temp Dewpoint Dewpoint Depression Visibility Wind Speed Wind Dir Waves Ship Positions

Ryoan Maru No.27

Last reported at 2018-Jun-13 14:17 UTC. Time now 2018-Jun-24 18:56 UTC.
Position N 35°12' E 139°46'.
Warning: this ship's position is 11 days out of date.

Length 75 m; draft 3.8 m.

Type: Cargo ship. MMSI: 431005402.

Date/timePositionNaut miles runAvg speedWind from/ knotsBaromVisibWave heightAir tempDewpointWater temp
2018-Jun-13 14:17N 35°12' E 139°46'412.5
2018-Jun-13 13:59N 35°16' E 139°46'612.7
2018-Jun-13 13:30N 35°21' E 139°42'611.4
2018-Jun-13 13:00N 35°26' E 139°45'712.5
2018-Jun-13 12:29N 35°30' E 139°51'812.3
2018-Jun-13 11:47N 35°37' E 139°58'8 1.4
2018-Jun-13 06:07N 35°30' E 139°53'312.9
2018-Jun-13 05:54N 35°28' E 139°51'513.1
2018-Jun-13 05:30N 35°24' E 139°46'612.4
2018-Jun-13 05:00N 35°18' E 139°44'612.6
2018-Jun-13 04:30N 35°12' E 139°47'24710.8
2018-Jun-12 05:39N 33°56' E 135°02'212.4
2018-Jun-12 05:30N 33°58' E 135°01'612.6
2018-Jun-12 05:00N 34°04' E 135°00'713.4
2018-Jun-12 04:31N 34°11' E 134°59'815.0
2018-Jun-12 04:00N 34°18' E 134°59'713.1
2018-Jun-12 03:30N 34°24' E 135°03'713.7
2018-Jun-12 03:01N 34°28' E 135°09'712.9
2018-Jun-12 02:29N 34°32' E 135°16'612.7
2018-Jun-12 02:00N 34°36' E 135°21'510.6
2018-Jun-12 01:29N 34°39' E 135°27'1 0.1
2018-Jun-11 20:09N 34°39' E 135°28'0 0.0
2018-Jun-11 15:21N 34°39' E 135°28'0 0.0
2018-Jun-11 14:57N 34°39' E 135°28'0 0.0
2018-Jun-11 14:27N 34°39' E 135°28'0 0.0
2018-Jun-11 05:51N 34°39' E 135°28'0 0.0
2018-Jun-11 05:27N 34°39' E 135°28'0 0.0
2018-Jun-11 02:33N 34°39' E 135°28'0 0.0
2018-Jun-11 02:27N 34°39' E 135°28'1 3.0
2018-Jun-11 02:00N 34°39' E 135°26'2 3.4
2018-Jun-11 01:30N 34°37' E 135°26'0 0.1
2018-Jun-10 23:28N 34°37' E 135°26'0 0.1
2018-Jun-10 22:46N 34°37' E 135°26'1 4.1
2018-Jun-10 22:30N 34°37' E 135°24'1 1.9
2018-Jun-10 21:50N 34°37' E 135°23'0 0.0
2018-Jun-10 18:20N 34°37' E 135°23'0 0.0
2018-Jun-10 15:44N 34°37' E 135°23'0 0.0
2018-Jun-10 13:08N 34°37' E 135°23'0 0.0
2018-Jun-10 12:32N 34°37' E 135°23'0 0.0
2018-Jun-10 10:56N 34°37' E 135°23'0 0.0
2018-Jun-10 09:26N 34°37' E 135°23'0 0.0
2018-Jun-10 08:50N 34°37' E 135°23'0 0.0
2018-Jun-10 08:10N 34°37' E 135°23'0 0.0
2018-Jun-10 07:44N 34°37' E 135°23'0 0.0
2018-Jun-10 07:26N 34°37' E 135°23'0 0.0
2018-Jun-10 06:50N 34°37' E 135°23'0 0.0
2018-Jun-10 04:07N 34°37' E 135°23'0 1.2
2018-Jun-10 04:00N 34°37' E 135°23'510.7
2018-Jun-10 03:30N 34°33' E 135°18'712.0
2018-Jun-10 02:56N 34°29' E 135°12'511.7
2018-Jun-10 02:30N 34°25' E 135°08'611.7
2018-Jun-10 02:00N 34°20' E 135°05'510.3
2018-Jun-10 01:30N 34°15' E 135°03'611.5
2018-Jun-10 01:00N 34°09' E 135°02'611.4
2018-Jun-10 00:30N 34°04' E 135°02'611.7
2018-Jun-10 00:00N 33°58' E 135°03'611.3
2018-Jun-09 23:29N 33°52' E 135°03'611.2
2018-Jun-09 22:57N 33°47' E 135°08'  
Track history (hours):
 
Tides and Currents Weather Stations Pressure Air Temp Water Temp Dewpoint Dewpoint Depression Visibility Wind Speed Wind Dir Waves Ship Positions

Ryoan Maru No.27

Last reported at 2018-Jun-13 14:17 UTC. Time now 2018-Jun-24 18:56 UTC.
Position N 35°12' E 139°46'.
Warning: this ship's position is 11 days out of date.

Length 75 m; draft 3.8 m.

Type: Cargo ship. MMSI: 431005402.

Date/timePositionNaut miles runAvg speedWind from/ knotsBaromVisibWave heightAir tempDewpointWater temp
2018-Jun-13 14:17N 35°12' E 139°46'412.5
2018-Jun-13 13:59N 35°16' E 139°46'612.7
2018-Jun-13 13:30N 35°21' E 139°42'611.4
2018-Jun-13 13:00N 35°26' E 139°45'712.5
2018-Jun-13 12:29N 35°30' E 139°51'812.3
2018-Jun-13 11:47N 35°37' E 139°58'8 1.4
2018-Jun-13 06:07N 35°30' E 139°53'312.9
2018-Jun-13 05:54N 35°28' E 139°51'513.1
2018-Jun-13 05:30N 35°24' E 139°46'612.4
2018-Jun-13 05:00N 35°18' E 139°44'612.6
2018-Jun-13 04:30N 35°12' E 139°47'24710.8
2018-Jun-12 05:39N 33°56' E 135°02'212.4
2018-Jun-12 05:30N 33°58' E 135°01'612.6
2018-Jun-12 05:00N 34°04' E 135°00'713.4
2018-Jun-12 04:31N 34°11' E 134°59'815.0
2018-Jun-12 04:00N 34°18' E 134°59'713.1
2018-Jun-12 03:30N 34°24' E 135°03'713.7
2018-Jun-12 03:01N 34°28' E 135°09'712.9
2018-Jun-12 02:29N 34°32' E 135°16'612.7
2018-Jun-12 02:00N 34°36' E 135°21'510.6
2018-Jun-12 01:29N 34°39' E 135°27'1 0.1
2018-Jun-11 20:09N 34°39' E 135°28'0 0.0
2018-Jun-11 15:21N 34°39' E 135°28'0 0.0
2018-Jun-11 14:57N 34°39' E 135°28'0 0.0
2018-Jun-11 14:27N 34°39' E 135°28'0 0.0
2018-Jun-11 05:51N 34°39' E 135°28'0 0.0
2018-Jun-11 05:27N 34°39' E 135°28'0 0.0
2018-Jun-11 02:33N 34°39' E 135°28'0 0.0
2018-Jun-11 02:27N 34°39' E 135°28'1 3.0
2018-Jun-11 02:00N 34°39' E 135°26'2 3.4
2018-Jun-11 01:30N 34°37' E 135°26'0 0.1
2018-Jun-10 23:28N 34°37' E 135°26'0 0.1
2018-Jun-10 22:46N 34°37' E 135°26'1 4.1
2018-Jun-10 22:30N 34°37' E 135°24'1 1.9
2018-Jun-10 21:50N 34°37' E 135°23'0 0.0
2018-Jun-10 18:20N 34°37' E 135°23'0 0.0
2018-Jun-10 15:44N 34°37' E 135°23'0 0.0
2018-Jun-10 13:08N 34°37' E 135°23'0 0.0
2018-Jun-10 12:32N 34°37' E 135°23'0 0.0
2018-Jun-10 10:56N 34°37' E 135°23'0 0.0
2018-Jun-10 09:26N 34°37' E 135°23'0 0.0
2018-Jun-10 08:50N 34°37' E 135°23'0 0.0
2018-Jun-10 08:10N 34°37' E 135°23'0 0.0
2018-Jun-10 07:44N 34°37' E 135°23'0 0.0
2018-Jun-10 07:26N 34°37' E 135°23'0 0.0
2018-Jun-10 06:50N 34°37' E 135°23'0 0.0
2018-Jun-10 04:07N 34°37' E 135°23'0 1.2
2018-Jun-10 04:00N 34°37' E 135°23'510.7
2018-Jun-10 03:30N 34°33' E 135°18'712.0
2018-Jun-10 02:56N 34°29' E 135°12'511.7
2018-Jun-10 02:30N 34°25' E 135°08'611.7
2018-Jun-10 02:00N 34°20' E 135°05'510.3
2018-Jun-10 01:30N 34°15' E 135°03'611.5
2018-Jun-10 01:00N 34°09' E 135°02'611.4
2018-Jun-10 00:30N 34°04' E 135°02'611.7
2018-Jun-10 00:00N 33°58' E 135°03'611.3
2018-Jun-09 23:29N 33°52' E 135°03'611.2
2018-Jun-09 22:57N 33°47' E 135°08'  

Dump ship's entire track history